This is the latest recevied weather packets stored in our database for station/object W1BKW. If no packets are shown the sender has not sent any weather packets the latest 1 day(s).
| Time | Temp. | Humidity | Pressure | Rain* | Wind** | Luminosity | Snow |
|---|---|---|---|---|---|---|---|
| 1778107968 | 13.89° C | 99% | 1002.3 hPa | 1.27 mm | - | 3 W/m² | - |
| 1778107064 | 14.44° C | 99% | 1002.8 hPa | 0 mm | - | 10 W/m² | - |
| 1778101645 | 14.44° C | 99% | 1003.2 hPa | 0 mm | - | 32 W/m² | - |
| 1778098935 | 13.89° C | 99% | 1003.1 hPa | 1.78 mm | - | 34 W/m² | - |
| 1778095320 | 13.89° C | 99% | 1003.9 hPa | 1.27 mm | - | 60 W/m² | - |
| 1778093512 | 13.89° C | 99% | 1004.5 hPa | 4.83 mm | - | 5 W/m² | - |
| 1778088997 | 14.44° C | 96% | 1004.9 hPa | 0 mm | - | 54 W/m² | - |
| 1778088093 | 14.44° C | 96% | 1005 hPa | 0 mm | - | 112 W/m² | - |
| 1778081009 | 15° C | 86% | 1006.8 hPa | 0 mm | - | 72 W/m² | - |
| 1778078301 | 13.89° C | 88% | 1006.8 hPa | 0 mm | - | 85 W/m² | - |
| 1778072884 | 13.89° C | 90% | 1006.9 hPa | 0 mm | - | 76 W/m² | - |
| 1778066571 | 12.78° C | 99% | 1007.6 hPa | 0 mm | - | 64 W/m² | - |
| 1778065669 | 12.22° C | 99% | 1007.7 hPa | 0 mm | - | 49 W/m² | - |
| 1778064766 | 12.22° C | 99% | 1007.9 hPa | 0 mm | - | 52 W/m² | - |
| 1778063864 | 12.22° C | 99% | 1007.7 hPa | 0 mm | - | 15 W/m² | - |
| 1778059355 | 11.67° C | 99% | 1007.4 hPa | 0 mm | - | 0 W/m² | - |
| 1778058453 | 12.22° C | 98% | 1007.3 hPa | 0 mm | - | 0 W/m² | - |
| 1778057548 | 12.78° C | 97% | 1007.4 hPa | 0 mm | - | 0 W/m² | - |
| 1778056644 | 13.33° C | 93% | 1007.4 hPa | 0 mm | - | 0 W/m² | - |
| 1778055740 | 13.89° C | 92% | 1007.4 hPa | 0 mm | - | 0 W/m² | - |
| 1778054839 | 13.89° C | 93% | 1007.7 hPa | 0 mm | - | 0 W/m² | - |
| 1778053935 | 13.89° C | 95% | 1007.5 hPa | 0 mm | - | 0 W/m² | - |
| 1778053034 | 13.33° C | 97% | 1007.7 hPa | 0 mm | - | 0 W/m² | - |
| 1778051229 | 13.89° C | 97% | 1007.2 hPa | 0 mm | - | 0 W/m² | - |
| 1778050326 | 15° C | 93% | 1006.7 hPa | 0 mm | - | 0 W/m² | - |
* Rain latest hour (hover to see other rain measurements)
** Current wind speed in m/s (hover to see current wind gust speed)